createdAt,value
2023-03-12T00:55:15.347Z,1.90
2023-03-12T01:07:01.952Z,4.80
2023-03-12T01:14:48.982Z,2.00
2023-03-12T01:17:21.789Z,3.53
2023-03-12T01:19:49.942Z,1.80
2023-03-12T01:22:29.403Z,7.47
2023-03-12T01:25:05.859Z,1.63
2023-03-12T01:27:33.948Z,2.07
2023-03-12T01:33:02.187Z,1.27
2023-03-12T01:35:32.557Z,4.00
2023-03-12T01:38:05.783Z,4.30
2023-03-12T01:40:43.158Z,1.70
2023-03-12T01:43:32.323Z,1.57
2023-03-12T01:46:24.948Z,1.50
2023-03-12T01:49:10.198Z,4.13
2023-03-12T01:51:49.018Z,1.50
2023-03-12T01:54:39.171Z,1.80
2023-03-12T01:57:13.342Z,2.10
2023-03-12T01:59:54.468Z,2.07
2023-03-12T02:02:29.849Z,1.97
2023-03-12T02:05:16.822Z,1.50
2023-03-12T02:07:57.176Z,1.70
2023-03-12T02:10:52.164Z,1.60
2023-03-12T02:13:28.683Z,1.67
2023-03-12T02:16:06.174Z,1.90
2023-03-12T02:18:46.388Z,2.17
2023-03-12T02:21:21.015Z,1.30
2023-03-12T02:24:02.129Z,1.80
2023-03-12T02:33:56.019Z,1.70
2023-03-12T02:37:00.211Z,3.03
2023-03-12T02:43:21.048Z,1.73
2023-03-12T02:49:29.373Z,1.67
2023-03-12T02:56:14.879Z,2.93
2023-03-12T02:59:04.320Z,2.60
2023-03-12T03:01:54.884Z,1.93
2023-03-12T03:07:56.547Z,2.37
2023-03-12T03:16:55.154Z,1.97
2023-03-12T03:20:13.278Z,1.97
2023-03-12T03:23:11.796Z,2.63
2023-03-12T03:26:04.656Z,1.60
2023-03-12T03:50:21.508Z,3.37
2023-03-12T04:01:00.791Z,2.93
2023-03-12T06:51:17.089Z,4.17
2023-03-12T06:54:47.078Z,3.33
2023-03-12T07:01:19.067Z,6.63
2023-03-12T07:04:36.395Z,4.83
2023-03-12T07:07:40.354Z,9.63
2023-03-12T07:50:52.254Z,3.33
2023-03-12T07:53:20.978Z,3.80
2023-03-12T07:55:52.418Z,3.47
2023-03-12T07:58:20.731Z,4.13
2023-03-12T08:00:49.167Z,3.70
2023-03-12T08:03:18.105Z,4.90
2023-03-12T08:05:46.680Z,3.43
2023-03-12T08:08:18.049Z,3.70
2023-03-12T08:10:46.870Z,3.57
2023-03-12T08:13:15.097Z,3.57
2023-03-12T08:15:44.959Z,6.07
2023-03-12T08:18:13.416Z,4.27
2023-03-12T08:20:41.654Z,4.83
2023-03-12T08:23:18.870Z,5.67
2023-03-12T08:25:49.452Z,9.20
2023-03-12T08:28:18.814Z,4.60
2023-03-12T08:30:48.331Z,4.93
2023-03-12T08:33:16.662Z,4.17
2023-03-12T08:35:44.871Z,5.80
2023-03-12T08:38:13.106Z,7.23
2023-03-12T08:40:41.334Z,7.20
2023-03-12T08:43:14.061Z,5.93
2023-03-12T08:45:51.573Z,4.30
2023-03-12T08:48:30.392Z,3.53
2023-03-12T08:51:04.732Z,3.90
2023-03-12T08:53:40.893Z,3.90
2023-03-12T08:56:15.789Z,3.63
2023-03-12T08:58:52.129Z,5.60
2023-03-12T09:01:23.023Z,7.83
2023-03-12T09:04:04.720Z,3.50
2023-03-12T09:06:41.854Z,3.27
2023-03-12T09:12:24.217Z,3.40
2023-03-12T09:15:05.440Z,3.50
2023-03-12T09:17:43.062Z,5.30
2023-03-12T10:06:14.630Z,3.03
2023-03-12T10:09:04.743Z,2.97
2023-03-12T10:11:45.132Z,3.77
2023-03-12T10:14:28.059Z,2.30
2023-03-12T10:17:10.396Z,2.83
2023-03-12T10:19:55.420Z,2.87
2023-03-12T10:22:33.854Z,3.03
2023-03-12T10:25:09.390Z,2.40
2023-03-12T10:27:38.185Z,2.43
2023-03-12T10:30:17.881Z,2.50
2023-03-12T10:32:50.705Z,2.60
2023-03-12T10:35:21.991Z,4.53
2023-03-12T10:37:53.400Z,2.47
2023-03-12T10:40:23.560Z,2.23
2023-03-12T10:42:53.517Z,2.37
2023-03-12T10:45:30.851Z,3.80
2023-03-12T10:48:07.084Z,4.53
2023-03-12T10:50:38.747Z,2.50
2023-03-12T10:53:28.556Z,2.80
2023-03-12T10:56:03.285Z,3.13
2023-03-12T10:58:36.842Z,2.90
2023-03-12T11:01:20.240Z,2.87
2023-03-12T11:03:48.395Z,2.90
2023-03-12T11:06:23.346Z,3.83
2023-03-12T11:09:16.647Z,5.33
2023-03-12T11:11:47.505Z,2.53
2023-03-12T11:14:19.238Z,2.63
2023-03-12T11:16:47.719Z,3.47
2023-03-12T11:19:27.304Z,5.23
2023-03-12T11:21:58.396Z,5.87
2023-03-12T11:24:32.013Z,2.60
2023-03-12T11:27:08.214Z,5.37
2023-03-12T11:29:42.008Z,4.60
2023-03-12T11:32:18.301Z,3.00
2023-03-12T11:34:58.289Z,3.07
2023-03-12T11:37:35.409Z,3.07
2023-03-12T11:40:18.393Z,6.20
2023-03-12T11:43:02.672Z,2.97
2023-03-12T11:45:38.545Z,3.50
2023-03-12T11:48:23.645Z,5.70
2023-03-12T11:51:15.381Z,2.80
2023-03-12T11:54:12.943Z,3.00
2023-03-12T11:56:51.565Z,3.63
2023-03-12T11:59:37.773Z,4.20
2023-03-12T12:02:23.764Z,3.07
2023-03-12T12:05:22.961Z,3.30
2023-03-12T12:08:12.285Z,3.20
2023-03-12T12:10:49.165Z,3.20
2023-03-12T12:13:25.274Z,3.17
2023-03-12T12:16:03.125Z,3.17
2023-03-12T12:18:52.937Z,3.57
2023-03-12T12:21:51.275Z,3.40
2023-03-12T12:24:33.377Z,4.70
2023-03-12T12:27:10.533Z,3.10
2023-03-12T12:29:55.315Z,2.57
2023-03-12T12:32:33.681Z,3.33
2023-03-12T12:35:16.235Z,3.20
2023-03-12T12:37:52.690Z,3.10
2023-03-12T12:40:24.577Z,2.87
2023-03-12T12:43:02.424Z,3.20
2023-03-12T12:45:32.388Z,2.70
2023-03-12T12:48:05.241Z,2.90
2023-03-12T12:50:39.924Z,2.47
2023-03-12T12:53:18.352Z,3.07
2023-03-12T12:55:56.390Z,2.77
2023-03-12T12:58:33.210Z,4.20
2023-03-12T13:01:03.590Z,3.23
2023-03-12T13:03:33.272Z,3.27
2023-03-12T13:06:03.785Z,3.00
2023-03-12T13:08:56.637Z,3.17
2023-03-12T13:11:28.141Z,2.83
2023-03-12T13:14:21.701Z,3.30
2023-03-12T13:17:06.778Z,5.87
2023-03-12T13:19:46.910Z,3.00
2023-03-12T13:22:29.942Z,2.77
2023-03-12T13:25:08.657Z,3.80
2023-03-12T13:27:39.306Z,3.10
2023-03-12T13:30:44.442Z,2.83
2023-03-12T13:33:16.095Z,2.73
2023-03-12T13:35:49.098Z,3.30
2023-03-12T13:38:35.292Z,2.87
2023-03-12T13:41:05.509Z,2.80
2023-03-12T13:44:00.455Z,3.57
2023-03-12T13:46:35.034Z,3.20
2023-03-12T13:49:12.218Z,3.33
2023-03-12T13:51:53.597Z,3.87
2023-03-12T13:54:24.749Z,4.13
2023-03-12T13:57:01.120Z,3.93
2023-03-12T13:59:31.117Z,5.37
2023-03-12T14:02:05.816Z,4.77
2023-03-12T14:04:41.155Z,4.67
2023-03-12T14:07:39.839Z,5.93
2023-03-12T14:10:19.954Z,6.03
2023-03-12T14:12:58.282Z,7.33
2023-03-12T14:15:33.521Z,5.70
2023-03-12T14:18:05.184Z,6.23
2023-03-12T14:20:39.252Z,7.10
2023-03-12T14:23:19.732Z,7.20
2023-03-12T14:25:59.495Z,7.00
2023-03-12T14:28:28.578Z,7.33
2023-03-12T14:31:02.056Z,7.83
2023-03-12T14:33:39.185Z,8.30
2023-03-12T14:36:19.143Z,8.57
2023-03-12T14:39:11.441Z,8.13
2023-03-12T14:41:49.637Z,8.97
2023-03-12T14:44:54.043Z,10.07
2023-03-12T14:47:22.472Z,11.53
2023-03-12T14:50:05.874Z,12.03
2023-03-12T14:52:52.693Z,12.07
2023-03-12T14:55:52.775Z,11.73
2023-03-12T14:58:51.514Z,11.20
2023-03-12T15:01:43.067Z,12.47
2023-03-12T15:04:22.438Z,11.73
2023-03-12T15:06:53.707Z,11.73
2023-03-12T15:09:35.308Z,11.53
2023-03-12T15:12:17.362Z,12.47
2023-03-12T15:14:50.459Z,12.77
2023-03-12T15:17:20.801Z,14.90
2023-03-12T15:19:50.418Z,14.77
2023-03-12T15:22:23.285Z,14.90
2023-03-12T15:24:53.096Z,14.97
2023-03-12T15:27:24.417Z,14.90
2023-03-12T15:29:53.008Z,14.90
2023-03-12T15:32:25.225Z,15.33
2023-03-12T15:34:54.755Z,15.60
2023-03-12T15:37:32.409Z,15.37
2023-03-12T15:40:06.674Z,14.73
2023-03-12T15:42:41.378Z,14.23
2023-03-12T15:45:19.862Z,13.13
2023-03-12T15:47:48.956Z,13.67
2023-03-12T15:50:23.075Z,12.97
2023-03-12T15:53:02.648Z,12.73
2023-03-12T15:55:34.060Z,12.33
2023-03-12T15:58:02.820Z,12.80
2023-03-12T16:00:33.170Z,12.50
2023-03-12T16:03:04.055Z,14.70
2023-03-12T16:05:33.673Z,12.40
2023-03-12T16:08:03.989Z,13.80
2023-03-12T16:10:37.430Z,12.33
2023-03-12T16:13:05.929Z,11.33
2023-03-12T16:15:37.093Z,11.97
2023-03-12T16:18:05.804Z,13.90
2023-03-12T16:20:33.867Z,14.70
2023-03-12T16:23:02.002Z,20.07
2023-03-12T16:25:30.270Z,15.83
2023-03-12T16:28:03.502Z,16.53
2023-03-12T16:30:33.645Z,20.90
2023-03-12T16:33:04.116Z,16.70
2023-03-12T16:35:33.858Z,28.70
2023-03-12T16:38:02.252Z,14.83
2023-03-12T16:40:34.114Z,22.50
2023-03-12T16:43:06.734Z,20.20
2023-03-12T16:45:37.027Z,21.67
2023-03-12T16:48:07.500Z,19.63
2023-03-12T16:50:35.820Z,17.67
2023-03-12T16:53:04.910Z,24.90
2023-03-12T16:55:45.349Z,16.77
2023-03-12T16:58:16.895Z,17.23
2023-03-12T17:00:45.387Z,24.83
2023-03-12T17:03:22.733Z,27.93
2023-03-12T17:05:50.730Z,16.20
2023-03-12T17:08:19.050Z,14.37
2023-03-12T17:10:47.206Z,17.60
2023-03-12T17:13:21.307Z,19.73
2023-03-12T17:15:49.947Z,21.17
2023-03-12T17:18:18.510Z,27.47
2023-03-12T17:20:47.058Z,18.03
2023-03-12T17:23:15.370Z,17.53
2023-03-12T17:25:45.354Z,17.37
2023-03-12T17:28:15.540Z,19.93
2023-03-12T17:30:45.616Z,21.80
2023-03-12T17:33:15.958Z,24.70
2023-03-12T17:35:44.468Z,17.63
2023-03-12T17:38:13.885Z,24.50
2023-03-12T17:40:43.006Z,20.00
2023-03-12T17:43:11.837Z,16.47
2023-03-12T17:45:39.920Z,25.53
2023-03-12T17:48:09.593Z,18.50
2023-03-12T17:50:38.145Z,15.30
2023-03-12T17:53:06.236Z,23.67
2023-03-12T17:55:34.358Z,18.00
2023-03-12T17:58:03.222Z,26.73
2023-03-12T18:00:31.453Z,27.23
2023-03-12T18:02:59.531Z,18.90
2023-03-12T18:05:31.515Z,23.00
2023-03-12T18:07:59.994Z,20.27
2023-03-12T18:10:28.101Z,17.13
2023-03-12T18:12:56.129Z,26.73
2023-03-12T18:15:24.174Z,22.03
2023-03-12T18:17:56.483Z,25.57
2023-03-12T18:20:36.209Z,24.97
2023-03-12T18:23:08.095Z,21.53
2023-03-12T18:25:37.773Z,20.03
2023-03-12T18:28:06.490Z,18.80
2023-03-12T18:30:34.597Z,18.90
2023-03-12T18:33:02.636Z,20.77
2023-03-12T18:35:30.676Z,26.33
2023-03-12T18:37:58.978Z,20.13
2023-03-12T18:40:29.051Z,20.70
2023-03-12T18:42:58.872Z,30.40
2023-03-12T18:45:27.816Z,24.77
2023-03-12T18:47:55.910Z,28.23
2023-03-12T18:50:24.182Z,30.23
2023-03-12T18:52:52.194Z,31.27
2023-03-12T18:55:20.334Z,23.93
2023-03-12T18:57:49.784Z,25.43
2023-03-12T19:00:19.201Z,21.10
2023-03-12T19:02:48.721Z,24.83
2023-03-12T19:05:17.590Z,25.20
2023-03-12T19:07:46.061Z,21.37
2023-03-12T19:10:14.884Z,23.07
2023-03-12T19:12:52.140Z,23.93
2023-03-12T19:15:24.970Z,23.53
2023-03-12T19:17:54.414Z,21.13
2023-03-12T19:20:23.058Z,23.10
2023-03-12T19:22:51.344Z,21.90
2023-03-12T19:25:20.383Z,24.40
2023-03-12T19:27:48.578Z,29.63
2023-03-12T19:30:17.614Z,22.67
2023-03-12T19:32:47.571Z,23.67
2023-03-12T19:35:16.252Z,24.73
2023-03-12T19:37:44.443Z,19.97
2023-03-12T19:40:14.129Z,21.60
2023-03-12T19:42:42.245Z,30.33
2023-03-12T19:45:11.423Z,23.70
2023-03-12T19:47:39.839Z,32.03
2023-03-12T19:50:11.932Z,33.20
2023-03-12T19:52:40.086Z,34.40
2023-03-12T19:55:09.510Z,20.30
2023-03-12T19:57:37.882Z,26.23
2023-03-12T20:00:09.887Z,42.50
2023-03-12T20:02:38.938Z,26.17
2023-03-12T20:05:10.112Z,25.10
2023-03-12T20:07:38.458Z,21.33
2023-03-12T20:10:10.146Z,21.93
2023-03-12T20:12:39.023Z,22.70
2023-03-12T20:15:08.167Z,16.57
2023-03-12T20:17:38.245Z,23.93
2023-03-12T20:20:08.881Z,30.93
2023-03-12T20:22:38.663Z,26.23
2023-03-12T20:25:07.886Z,23.97
2023-03-12T20:27:36.102Z,20.87
2023-03-12T20:30:04.811Z,18.00
2023-03-12T20:32:33.157Z,27.83
2023-03-12T20:35:01.223Z,23.17
2023-03-12T20:37:29.518Z,19.63
2023-03-12T20:39:59.037Z,27.13
2023-03-12T20:42:27.031Z,23.67
2023-03-12T20:44:55.295Z,19.63
2023-03-12T20:47:24.272Z,30.77
2023-03-12T20:49:52.537Z,22.17
2023-03-12T20:52:20.747Z,20.53
2023-03-12T20:54:48.824Z,25.03
2023-03-12T20:57:18.431Z,24.17
2023-03-12T20:59:46.671Z,17.77
2023-03-12T21:02:15.281Z,22.47
2023-03-12T21:04:43.788Z,24.83
2023-03-12T21:07:12.038Z,21.93
2023-03-12T21:09:40.084Z,19.67
2023-03-12T21:12:08.314Z,26.03
2023-03-12T21:14:39.899Z,20.03
2023-03-12T21:17:13.092Z,21.77
2023-03-12T21:19:41.952Z,21.03
2023-03-12T21:22:10.552Z,20.67
2023-03-12T21:24:38.602Z,18.60
2023-03-12T21:27:06.688Z,24.13
2023-03-12T21:29:34.885Z,22.33
2023-03-12T21:32:04.716Z,20.03
2023-03-12T21:34:32.987Z,23.33
2023-03-12T21:37:01.217Z,20.97
2023-03-12T21:39:29.642Z,16.93
2023-03-12T21:41:58.044Z,20.50
2023-03-12T21:44:26.308Z,18.53
2023-03-12T21:46:54.413Z,18.23
2023-03-12T21:49:23.998Z,16.67
2023-03-12T21:51:52.132Z,21.93
2023-03-12T21:54:20.642Z,19.33
2023-03-12T21:56:49.066Z,14.83
2023-03-12T21:59:17.346Z,18.00
2023-03-12T22:01:45.423Z,21.00
2023-03-12T22:04:13.572Z,16.60
2023-03-12T22:06:43.318Z,15.03
2023-03-12T22:09:11.382Z,20.20
2023-03-12T22:11:39.596Z,12.90
2023-03-12T22:14:07.695Z,14.37
2023-03-12T22:16:36.004Z,14.80
2023-03-12T22:19:07.501Z,15.30
2023-03-12T22:21:35.869Z,21.73
2023-03-12T22:24:05.780Z,28.17
2023-03-12T22:26:33.900Z,17.33
2023-03-12T22:29:02.204Z,18.33
2023-03-12T22:31:32.088Z,15.43
2023-03-12T22:34:00.296Z,24.13
2023-03-12T22:36:28.530Z,21.23
2023-03-12T22:38:56.911Z,13.27
2023-03-12T22:41:28.963Z,17.33
2023-03-12T22:44:02.067Z,18.00
2023-03-12T22:46:30.971Z,25.57
2023-03-12T22:49:01.287Z,18.23
2023-03-12T22:51:30.594Z,18.43
2023-03-12T22:53:58.892Z,21.67
2023-03-12T22:56:28.686Z,16.77
2023-03-12T22:58:57.148Z,18.00
2023-03-12T23:01:25.770Z,18.30
2023-03-12T23:03:53.836Z,16.40
2023-03-12T23:06:23.332Z,21.63
2023-03-12T23:08:52.393Z,15.17
2023-03-12T23:11:20.872Z,18.37
2023-03-12T23:13:50.514Z,16.53
2023-03-12T23:16:20.821Z,19.97
2023-03-12T23:18:49.650Z,18.00
2023-03-12T23:21:20.175Z,15.53
2023-03-12T23:23:48.883Z,11.60
2023-03-12T23:26:19.748Z,17.60
2023-03-12T23:28:48.454Z,16.63
2023-03-12T23:31:18.121Z,17.07
2023-03-12T23:33:46.416Z,21.00
2023-03-12T23:36:16.247Z,20.00
2023-03-12T23:38:44.799Z,37.67
2023-03-12T23:41:14.490Z,22.20
2023-03-12T23:43:42.764Z,20.07
2023-03-12T23:46:11.688Z,25.00
2023-03-12T23:48:42.038Z,26.07
2023-03-12T23:51:11.653Z,21.27
2023-03-12T23:53:41.613Z,21.60
2023-03-12T23:56:11.829Z,18.13
2023-03-12T23:58:40.077Z,24.33
